Mound Valley, Kansas
Current Conditions -  °F | °C
As of 3:52 PM on Friday 24 Oct 2014 (Local Time) from KPPF Reporting Station
Clear Clear  
Wind Chill: 75°   Ceiling: Unl
Heat Index: 75°   Visibility: 10mi
Dew Point: 62°   Wind: 7mph
Humidity: 64%   Direction: 190°S
Pressure: 30.03"   Gusts: NA
Location:  37.21°N, 95.4°W
Report Text: KPPF 242052Z AUTO 19006KT 10SM CLR 24/17 A3003 RMK AO2 SLP162 T02390167 56016
Loading
Personal Weather Stations






























Interactive Weather Map
Tropical Storm Tracking
New forecast layout! Learn more

10-Day Weather Forecast

Advertisements
Track Severe Weather on mobile